Time;durP1;ratioP1;P1;durP2;ratioP2;P2;SDS_P1;SDS_P2;PMS_P1;PMS_P2;Temp;Humidity;BMP_temperature;BMP_pressure;BME280_temperature;BME280_humidity;BME280_pressure;Samples;Min_cycle;Max_cycle;Signal;HPM_P1;HPM_P2
2023/04/17 00:02:24;;;;;;;;;14.67;14.67;;;;;14.60;69.22;102034.47;5082316;27;53577;-78
2023/04/17 00:04:51;;;;;;;;;14.67;14.67;;;;;14.61;68.72;102028.09;5082413;27;45430;-78
2023/04/17 00:07:21;;;;;;;;;14.00;12.67;;;;;14.50;68.45;102015.94;5082324;27;45471;-78
2023/04/17 00:09:47;;;;;;;;;14.67;12.67;;;;;14.59;68.42;102029.28;5082231;27;45454;-78
2023/04/17 00:12:12;;;;;;;;;13.67;13.00;;;;;14.50;68.90;102015.94;5082320;27;45279;-78
2023/04/17 00:14:37;;;;;;;;;16.00;14.00;;;;;14.56;68.78;102029.63;5082112;28;45467;-78
2023/04/17 00:17:03;;;;;;;;;14.00;14.00;;;;;14.54;68.69;102027.09;5082368;27;45361;-78
2023/04/17 00:19:28;;;;;;;;;10.33;9.33;;;;;14.50;69.06;102025.78;5082203;28;45422;-78
2023/04/17 00:21:53;;;;;;;;;12.33;12.33;;;;;14.44;69.22;102031.78;5082119;27;47683;-78
2023/04/17 00:24:18;;;;;;;;;14.67;14.33;;;;;14.43;69.78;102025.63;5082674;27;45286;-77
2023/04/17 00:26:44;;;;;;;;;14.67;13.67;;;;;14.37;69.41;102020.94;5082137;28;49094;-78
2023/04/17 00:29:09;;;;;;;;;14.00;12.33;;;;;14.50;68.09;102023.94;5081698;27;47113;-78
2023/04/17 00:31:35;;;;;;;;;16.00;12.67;;;;;14.37;69.00;102020.94;5082192;28;45338;-78
2023/04/17 00:34:00;;;;;;;;;13.33;13.00;;;;;14.29;69.14;102013.75;5082391;28;45263;-78
2023/04/17 00:36:26;;;;;;;;;13.33;13.00;;;;;14.34;69.08;102011.41;5081404;28;45231;-78
2023/04/17 00:38:51;;;;;;;;;15.67;14.33;;;;;14.26;68.88;102012.28;5081853;28;46091;-78
2023/04/17 00:41:17;;;;;;;;;13.00;13.00;;;;;14.22;69.71;102013.59;5081783;28;45309;-78
2023/04/17 00:43:42;;;;;;;;;14.33;13.67;;;;;14.20;69.48;102006.75;5082227;28;45268;-78
2023/04/17 00:46:08;;;;;;;;;11.33;11.33;;;;;14.16;69.02;102000.06;5081951;28;45331;-78
2023/04/17 00:48:35;;;;;;;;;10.33;10.33;;;;;14.12;69.25;101994.19;5081757;28;46052;-78
2023/04/17 00:51:02;;;;;;;;;15.67;13.00;;;;;14.11;69.81;101996.06;5080282;28;45389;-78
2023/04/17 00:53:31;;;;;;;;;13.00;13.00;;;;;14.10;69.97;101990.88;5081812;28;45357;-78
2023/04/17 00:55:59;;;;;;;;;14.67;11.67;;;;;14.13;70.44;102006.59;5081504;28;45461;-78
2023/04/17 00:58:26;;;;;;;;;12.33;12.33;;;;;14.09;69.80;101989.19;5081497;28;46243;-78
2023/04/17 01:00:51;;;;;;;;;10.33;10.33;;;;;14.09;69.98;101989.19;5081529;28;45352;-78
2023/04/17 01:03:16;;;;;;;;;12.67;11.00;;;;;14.00;70.06;101972.31;5081544;28;45260;-79
2023/04/17 01:05:47;;;;;;;;;10.67;8.67;;;;;13.97;69.72;101975.31;5029552;28;46904;-78
2023/04/17 01:08:13;;;;;;;;;8.67;8.33;;;;;14.03;69.38;101984.53;5081526;28;46122;-78
2023/04/17 01:10:38;;;;;;;;;11.33;11.33;;;;;13.96;69.65;101982.53;5081362;28;45255;-78
2023/04/17 01:13:05;;;;;;;;;13.00;10.33;;;;;13.96;70.17;101987.88;5081540;28;45269;-78
2023/04/17 01:15:31;;;;;;;;;11.33;11.33;;;;;13.81;70.62;101968.13;5081345;28;45427;-78
2023/04/17 01:17:57;;;;;;;;;12.00;11.00;;;;;13.92;70.22;101983.00;5062939;28;48652;-78
2023/04/17 01:20:24;;;;;;;;;14.33;13.00;;;;;13.84;69.56;101973.16;5062707;28;45262;-78
2023/04/17 01:22:51;;;;;;;;;10.67;10.67;;;;;13.71;70.66;101961.09;5063063;28;45718;-78
2023/04/17 01:25:20;;;;;;;;;14.00;12.33;;;;;13.85;71.53;101977.47;5081206;28;45474;-78
2023/04/17 01:27:45;;;;;;;;;11.33;10.67;;;;;13.63;71.00;101966.44;5081251;28;45299;-78
2023/04/17 01:30:11;;;;;;;;;15.67;14.00;;;;;13.62;70.78;101984.31;5080961;28;45431;-78
2023/04/17 01:32:36;;;;;;;;;14.67;12.67;;;;;13.63;70.83;101977.13;5081648;27;45347;-78
2023/04/17 01:35:02;;;;;;;;;9.67;9.33;;;;;13.64;70.88;101981.47;5080943;28;45727;-78
2023/04/17 01:37:27;;;;;;;;;13.67;12.33;;;;;13.70;70.93;101996.84;5080744;27;47104;-78
2023/04/17 01:39:54;;;;;;;;;12.33;11.67;;;;;13.66;71.00;102000.84;5081012;27;45310;-78
2023/04/17 01:42:19;;;;;;;;;14.00;13.67;;;;;13.60;71.12;101998.84;5079798;28;45398;-78
2023/04/17 01:44:45;;;;;;;;;13.00;12.67;;;;;13.58;71.24;101992.81;5080768;28;47252;-78
2023/04/17 01:47:10;;;;;;;;;17.33;15.67;;;;;13.54;71.19;101983.47;5079497;28;46492;-78
2023/04/17 01:49:35;;;;;;;;;12.33;12.33;;;;;13.57;71.82;101989.31;5049089;28;56798;-78
2023/04/17 01:52:01;;;;;;;;;11.33;11.33;;;;;13.42;71.61;101961.53;5060574;28;45285;-78
2023/04/17 01:54:26;;;;;;;;;13.67;13.67;;;;;13.59;70.65;101994.50;5042397;28;46265;-78
2023/04/17 01:56:52;;;;;;;;;16.00;14.67;;;;;13.50;71.22;101988.31;5060402;28;45417;-78
2023/04/17 01:59:17;;;;;;;;;12.33;12.33;;;;;13.50;71.51;101994.47;5058971;28;45268;-78
2023/04/17 02:01:43;;;;;;;;;13.00;13.00;;;;;13.34;71.08;101981.88;5042200;28;45305;-78
2023/04/17 02:04:08;;;;;;;;;12.67;12.33;;;;;13.31;72.93;101994.69;5060321;28;45554;-78
2023/04/17 02:06:33;;;;;;;;;13.33;13.00;;;;;13.35;72.59;101980.06;5041650;28;47227;-78
2023/04/17 02:08:59;;;;;;;;;13.00;11.33;;;;;13.54;71.98;101986.97;5060088;28;45265;-78
2023/04/17 02:11:25;;;;;;;;;12.00;12.00;;;;;13.36;72.15;101979.03;5060420;28;45193;-78
2023/04/17 02:13:50;;;;;;;;;12.67;12.00;;;;;13.39;71.95;101984.06;5060239;28;45499;-79
2023/04/17 02:16:16;;;;;;;;;12.00;11.67;;;;;13.42;72.54;101986.41;5060035;28;45404;-78
2023/04/17 02:18:41;;;;;;;;;14.00;13.33;;;;;13.42;72.40;101990.91;5060137;28;45263;-78
2023/04/17 02:21:07;;;;;;;;;15.00;13.00;;;;;13.37;72.13;101984.22;5041803;28;45327;-79
2023/04/17 02:23:33;;;;;;;;;15.33;13.00;;;;;13.33;72.34;101985.56;5060038;28;45537;-79
2023/04/17 02:25:58;;;;;;;;;13.00;12.67;;;;;13.33;72.48;101982.03;5059897;28;45284;-78
2023/04/17 02:28:23;;;;;;;;;16.33;13.00;;;;;13.38;71.94;101974.38;5060868;28;45273;-78
2023/04/17 02:30:49;;;;;;;;;13.00;12.33;;;;;13.22;71.14;101959.13;5080204;27;45252;-78
2023/04/17 02:33:14;;;;;;;;;14.67;13.33;;;;;13.18;72.78;101969.31;5080256;28;45516;-78
2023/04/17 02:35:40;;;;;;;;;14.67;12.33;;;;;13.22;72.24;101978.66;5079912;27;45587;-79
2023/04/17 02:38:05;;;;;;;;;12.67;12.67;;;;;13.16;72.31;101971.31;5079061;28;45359;-79
2023/04/17 02:40:30;;;;;;;;;14.67;13.00;;;;;13.23;72.42;101980.34;5080340;28;45345;-79
2023/04/17 02:42:56;;;;;;;;;12.00;11.67;;;;;12.98;72.88;101958.91;5078796;28;45593;-79
2023/04/17 02:45:21;;;;;;;;;11.67;11.67;;;;;13.14;72.59;101978.63;5080071;27;46035;-79
2023/04/17 02:47:47;;;;;;;;;11.00;11.00;;;;;13.12;72.99;101969.97;5079974;28;45325;-78
2023/04/17 02:50:12;;;;;;;;;12.33;10.67;;;;;13.11;72.66;101977.13;5079886;27;45272;-78
2023/04/17 02:52:39;;;;;;;;;15.00;12.00;;;;;13.10;72.40;101977.28;5078686;28;45962;-78
2023/04/17 02:55:05;;;;;;;;;14.33;13.67;;;;;13.00;73.75;101964.88;5078425;28;47503;-78
2023/04/17 02:57:31;;;;;;;;;11.33;11.33;;;;;13.10;73.71;101974.59;5079898;27;45377;-78
2023/04/17 02:59:56;;;;;;;;;13.33;13.00;;;;;13.11;73.89;101978.97;5079932;27;45313;-78
2023/04/17 03:02:22;;;;;;;;;16.67;15.33;;;;;13.17;73.62;101980.16;5078544;28;47430;-79
2023/04/17 03:04:49;;;;;;;;;10.33;10.33;;;;;13.22;75.00;101983.16;5078009;28;47197;-78
2023/04/17 03:07:18;;;;;;;;;14.00;13.67;;;;;13.22;74.90;101970.66;5079735;27;45390;-78
2023/04/17 03:09:48;;;;;;;;;11.00;11.00;;;;;13.28;75.52;101979.00;5079661;27;45263;-78
2023/04/17 03:12:14;;;;;;;;;12.00;12.00;;;;;13.31;74.81;101984.88;5079542;27;45410;-79
2023/04/17 03:14:40;;;;;;;;;12.33;11.00;;;;;13.22;74.85;101965.31;5081611;27;45407;-78
2023/04/17 03:17:06;;;;;;;;;13.33;13.33;;;;;13.36;74.97;101981.72;5083300;27;45334;-78
2023/04/17 03:19:32;;;;;;;;;13.67;13.33;;;;;13.37;75.40;101986.03;5081885;28;45265;-78
2023/04/17 03:21:57;;;;;;;;;12.33;11.67;;;;;13.34;74.96;101978.34;5083133;28;45326;-78
2023/04/17 03:24:22;;;;;;;;;12.00;12.00;;;;;13.38;75.05;101980.53;5083072;27;45276;-78
2023/04/17 03:26:48;;;;;;;;;13.67;13.67;;;;;13.45;74.69;101980.75;5083010;28;49917;-79
2023/04/17 03:29:13;;;;;;;;;14.33;12.67;;;;;13.47;74.12;101985.94;5082885;27;45354;-78
2023/04/17 03:31:39;;;;;;;;;11.33;11.00;;;;;13.49;74.75;101971.44;5083008;28;45243;-79
2023/04/17 03:34:04;;;;;;;;;14.67;13.67;;;;;13.52;74.06;101980.94;5083031;28;45398;-79
2023/04/17 03:36:30;;;;;;;;;17.00;16.67;;;;;13.52;75.45;101975.59;5082560;28;45308;-78
2023/04/17 03:38:56;;;;;;;;;11.00;10.33;;;;;13.54;75.41;101970.94;5083078;28;45170;-78
2023/04/17 03:41:22;;;;;;;;;13.33;11.33;;;;;13.58;76.22;101982.97;5082912;28;45367;-78
2023/04/17 03:43:47;;;;;;;;;16.00;16.00;;;;;13.61;76.53;101987.13;5064356;28;47237;-78
2023/04/17 03:46:12;;;;;;;;;17.00;15.67;;;;;13.62;76.20;101981.63;5082754;28;45334;-79
2023/04/17 03:48:37;;;;;;;;;13.67;13.00;;;;;13.59;75.61;101970.47;5064599;28;45355;-78
2023/04/17 03:51:03;;;;;;;;;18.33;17.33;;;;;13.68;76.25;101985.47;5082394;28;47179;-78
2023/04/17 03:53:29;;;;;;;;;11.67;11.67;;;;;13.71;76.11;101992.34;5064386;28;47124;-78
2023/04/17 03:55:55;;;;;;;;;14.33;13.00;;;;;13.64;75.34;101981.47;5082840;28;45653;-78
2023/04/17 03:58:20;;;;;;;;;18.67;15.67;;;;;13.69;75.69;101981.81;5082706;28;45415;-78
2023/04/17 04:00:47;;;;;;;;;18.00;17.00;;;;;13.72;76.18;101976.16;5082597;28;45265;-78
2023/04/17 04:03:12;;;;;;;;;14.00;13.00;;;;;13.67;75.91;101966.94;5064395;28;48216;-78
2023/04/17 04:05:38;;;;;;;;;18.33;15.00;;;;;13.67;75.80;101972.28;5082112;28;45276;-78
2023/04/17 04:08:03;;;;;;;;;12.67;12.67;;;;;13.78;76.08;101982.66;5082711;28;45288;-78
2023/04/17 04:10:29;;;;;;;;;20.33;17.00;;;;;13.83;75.37;101983.00;5064046;28;45777;-78
2023/04/17 04:12:54;;;;;;;;;14.33;14.00;;;;;13.87;74.83;101980.84;5082313;28;46383;-78
2023/04/17 04:15:19;;;;;;;;;15.00;13.00;;;;;13.93;75.06;101980.19;5082297;28;45249;-78
2023/04/17 04:17:44;;;;;;;;;15.67;15.67;;;;;13.80;75.06;101951.25;5082518;28;45256;-79
2023/04/17 04:20:10;;;;;;;;;14.67;14.67;;;;;13.94;74.83;101973.81;5063187;28;54627;-78
2023/04/17 04:22:35;;;;;;;;;12.33;12.33;;;;;13.94;74.97;101981.00;5081645;28;46418;-78
2023/04/17 04:25:01;;;;;;;;;14.33;14.00;;;;;13.91;75.41;101968.00;5080969;28;45446;-78
2023/04/17 04:27:26;;;;;;;;;19.67;16.67;;;;;13.95;75.08;101980.84;5081812;28;45402;-78
2023/04/17 04:29:52;;;;;;;;;16.00;16.00;;;;;13.93;74.90;101971.31;5081669;28;45395;-78
2023/04/17 04:32:17;;;;;;;;;16.00;16.00;;;;;14.04;75.46;101987.03;5080690;28;48482;-78
2023/04/17 04:34:43;;;;;;;;;16.33;14.00;;;;;14.05;75.43;101993.19;5081896;27;45224;-78
2023/04/17 04:37:14;;;;;;;;;17.00;16.67;;;;;14.06;75.59;101985.03;5080587;28;45568;-78
2023/04/17 04:39:40;;;;;;;;;18.33;16.33;;;;;13.87;75.73;101968.31;5082067;27;45278;-78
2023/04/17 04:42:08;;;;;;;;;19.00;18.00;;;;;14.06;76.21;101993.03;5081644;27;46334;-78
2023/04/17 04:44:34;;;;;;;;;17.33;16.67;;;;;14.06;76.63;101986.84;5081906;27;45333;-78
2023/04/17 04:47:00;;;;;;;;;18.67;16.00;;;;;14.16;76.77;102000.06;5081989;27;45385;-78
2023/04/17 04:49:25;;;;;;;;;19.67;16.67;;;;;14.14;76.52;101990.38;5081140;28;55632;-78
2023/04/17 04:51:50;;;;;;;;;17.67;15.67;;;;;14.25;76.68;101999.88;5083409;27;45326;-76
2023/04/17 04:54:16;;;;;;;;;17.33;14.33;;;;;14.26;76.70;101998.91;5082019;27;45301;-75
2023/04/17 04:56:43;;;;;;;;;15.67;14.67;;;;;14.20;76.30;101988.88;5082372;28;45286;-76
2023/04/17 04:59:09;;;;;;;;;19.67;17.00;;;;;14.26;76.70;101998.91;5080564;28;46894;-76
2023/04/17 05:01:35;;;;;;;;;23.67;23.00;;;;;14.39;76.86;102008.22;5081579;27;45269;-76
2023/04/17 05:04:00;;;;;;;;;22.33;21.33;;;;;14.41;76.75;102005.38;5081356;27;45301;-76
2023/04/17 05:06:26;;;;;;;;;23.67;22.00;;;;;14.48;76.96;102009.91;5075381;28;45486;-77
2023/04/17 05:08:52;;;;;;;;;22.33;17.33;;;;;14.52;77.53;102005.88;5069671;28;45327;-76
2023/04/17 05:11:17;;;;;;;;;24.33;22.67;;;;;14.55;78.08;102001.19;5078870;28;45412;-76
2023/04/17 05:13:43;;;;;;;;;23.33;22.00;;;;;14.66;78.35;102013.41;5081370;28;45333;-76
2023/04/17 05:16:08;;;;;;;;;24.33;21.67;;;;;14.66;78.78;101997.34;5081563;28;45350;-76
2023/04/17 05:18:33;;;;;;;;;25.00;22.33;;;;;14.64;78.88;101989.47;5079797;28;48405;-80
2023/04/17 05:20:59;;;;;;;;;23.33;21.67;;;;;14.76;77.95;101997.97;5081749;28;45403;-78
2023/04/17 05:23:24;;;;;;;;;29.00;22.67;;;;;14.77;78.06;101989.78;5081270;28;45398;-78
2023/04/17 05:25:49;;;;;;;;;19.67;19.33;;;;;14.93;78.26;101996.09;5081268;28;45422;-79
2023/04/17 05:28:15;;;;;;;;;19.33;18.67;;;;;15.04;77.52;101999.41;5080364;28;45477;-78
2023/04/17 05:30:40;;;;;;;;;32.00;26.33;;;;;15.12;77.69;102005.56;5080568;28;45313;-79
2023/04/17 05:33:06;;;;;;;;;20.67;19.33;;;;;15.20;78.32;102010.06;5079680;28;45375;-79
2023/04/17 05:35:32;;;;;;;;;29.00;26.67;;;;;15.25;78.18;102010.38;5080954;27;45283;-78
2023/04/17 05:37:57;;;;;;;;;27.00;24.00;;;;;15.26;78.71;102005.84;5080411;28;45357;-79
2023/04/17 05:40:22;;;;;;;;;23.67;23.00;;;;;15.25;77.84;101997.00;5081015;27;45329;-78
2023/04/17 05:42:48;;;;;;;;;24.33;23.00;;;;;15.22;78.20;101991.97;5076181;28;45335;-80
2023/04/17 05:45:14;;;;;;;;;28.00;25.67;;;;;15.29;78.35;101997.47;5066469;28;45528;-79
2023/04/17 05:47:40;;;;;;;;;26.33;25.00;;;;;15.31;78.66;101983.91;5061137;28;45375;-79
2023/04/17 05:50:08;;;;;;;;;27.67;24.00;;;;;15.47;79.31;102007.09;5060493;28;46009;-78
2023/04/17 05:52:33;;;;;;;;;34.33;32.33;;;;;15.47;79.28;101997.19;5060484;28;45341;-78
2023/04/17 05:54:59;;;;;;;;;35.33;30.67;;;;;15.56;79.31;102005.22;5059158;28;45376;-79
2023/04/17 05:57:24;;;;;;;;;30.00;28.00;;;;;15.65;79.49;102006.81;5060755;28;45305;-78
2023/04/17 05:59:49;;;;;;;;;32.00;30.33;;;;;15.68;79.19;102000.28;5061006;28;45418;-78
2023/04/17 06:02:15;;;;;;;;;37.67;34.00;;;;;15.75;78.59;102006.59;5045244;28;45866;-79
2023/04/17 06:04:42;;;;;;;;;42.00;35.00;;;;;15.76;79.24;102005.56;5060197;28;45259;-80
2023/04/17 06:07:08;;;;;;;;;45.50;35.75;;;;;15.83;78.84;102003.03;5041812;28;47168;-78
2023/04/17 06:09:35;;;;;;;;;41.00;35.00;;;;;15.84;79.61;102004.69;5059871;28;46071;-80
2023/04/17 06:12:00;;;;;;;;;36.00;32.33;;;;;15.88;79.40;101995.25;5059999;28;45244;-79
2023/04/17 06:14:26;;;;;;;;;34.67;32.00;;;;;15.92;78.87;101995.75;5060941;28;45442;-78
2023/04/17 06:16:51;;;;;;;;;45.67;37.33;;;;;16.01;78.93;101989.31;5061329;28;45302;-78
2023/04/17 06:19:16;;;;;;;;;42.67;34.67;;;;;16.03;78.90;101998.88;5062221;28;46104;-78
2023/04/17 06:21:42;;;;;;;;;39.00;33.33;;;;;16.10;78.52;102000.84;5060018;28;45367;-77
2023/04/17 06:24:07;;;;;;;;;38.00;35.00;;;;;16.19;78.58;102017.69;5060533;28;47266;-77
2023/04/17 06:26:33;;;;;;;;;46.67;35.00;;;;;16.16;78.20;102010.81;5061666;27;45509;-77
2023/04/17 06:28:59;;;;;;;;;43.50;36.25;;;;;16.15;78.27;102006.47;5071553;28;46168;-77
2023/04/17 06:31:25;;;;;;;;;34.67;30.33;;;;;16.20;78.12;102006.78;5069617;28;45541;-78
2023/04/17 06:33:50;;;;;;;;;41.00;36.00;;;;;16.23;78.26;102019.00;5064161;28;45361;-78
2023/04/17 06:36:15;;;;;;;;;40.00;34.00;;;;;16.25;78.30;102016.97;5064396;28;45386;-78
2023/04/17 06:38:41;;;;;;;;;39.00;33.67;;;;;16.24;77.95;102013.44;5066763;28;45315;-78
2023/04/17 06:41:06;;;;;;;;;38.33;34.67;;;;;16.30;78.59;102013.72;5063371;28;45244;-79
2023/04/17 06:43:31;;;;;;;;;38.33;33.67;;;;;16.33;78.55;102011.53;5054541;28;49185;-79
2023/04/17 06:45:57;;;;;;;;;39.00;34.33;;;;;16.32;77.89;102007.19;5066069;28;49836;-77
2023/04/17 06:48:22;;;;;;;;;41.00;34.33;;;;;16.23;78.26;102011.78;5070214;28;45183;-79
2023/04/17 06:50:48;;;;;;;;;41.00;36.00;;;;;16.32;78.43;102019.75;5064615;28;45249;-76
2023/04/17 06:53:14;;;;;;;;;43.75;37.25;;;;;16.32;78.17;102023.28;5087430;28;45293;-75
2023/04/17 06:55:39;;;;;;;;;40.67;34.67;;;;;16.35;78.35;102020.22;5086281;28;45406;-77
2023/04/17 06:58:07;;;;;;;;;43.25;36.50;;;;;16.31;78.50;102015.41;5082086;28;46138;-79
2023/04/17 07:00:32;;;;;;;;;37.33;33.00;;;;;16.37;78.04;102014.69;5080795;28;46139;-78
2023/04/17 07:02:57;;;;;;;;;38.75;33.75;;;;;16.42;78.50;102023.00;5052271;28;45715;-76
2023/04/17 07:05:22;;;;;;;;;42.00;34.67;;;;;16.40;78.52;102016.97;5059943;28;49923;-81
2023/04/17 07:07:48;;;;;;;;;45.25;36.75;;;;;16.40;78.92;102023.19;5060486;28;48009;-79
2023/04/17 07:10:14;;;;;;;;;46.50;38.75;;;;;16.46;78.81;102027.00;5069051;28;46081;-79
2023/04/17 07:12:40;;;;;;;;;44.50;37.00;;;;;16.40;79.24;102030.41;5077859;28;45543;-79
2023/04/17 07:15:06;;;;;;;;;43.75;36.75;;;;;16.48;78.76;102034.84;5082691;28;45355;-79
2023/04/17 07:17:31;;;;;;;;;45.25;37.00;;;;;16.52;79.19;102033.47;5075315;28;46750;-80
2023/04/17 07:19:56;;;;;;;;;41.75;36.50;;;;;16.61;79.11;102042.31;5070265;28;45389;-81
2023/04/17 07:22:22;;;;;;;;;48.00;37.25;;;;;16.63;79.03;102043.78;5070539;28;45161;-79
2023/04/17 07:24:47;;;;;;;;;43.25;35.75;;;;;16.65;79.00;102036.34;5047293;28;47073;-80
2023/04/17 07:27:12;;;;;;;;;44.00;36.67;;;;;16.73;79.16;102043.50;5043571;28;47201;-80
2023/04/17 07:29:38;;;;;;;;;45.25;36.75;;;;;16.78;78.58;102042.94;5054561;28;50116;-78
2023/04/17 07:32:03;;;;;;;;;44.67;37.67;;;;;16.79;78.60;102060.72;5042649;28;45289;-78
2023/04/17 07:34:30;;;;;;;;;46.00;36.75;;;;;16.79;78.80;102061.56;5060386;28;45218;-79
2023/04/17 07:36:56;;;;;;;;;46.50;38.75;;;;;16.75;78.24;102040.63;5061326;28;45447;-78
2023/04/17 07:39:21;;;;;;;;;43.25;37.75;;;;;16.88;79.08;102062.31;5042707;28;45319;-77
2023/04/17 07:41:47;;;;;;;;;49.25;39.50;;;;;16.84;78.96;102060.16;5063683;28;45340;-74
2023/04/17 07:44:13;;;;;;;;;49.50;40.25;;;;;16.85;79.22;102051.94;5071066;28;45482;-75
2023/04/17 07:46:38;;;;;;;;;49.25;39.50;;;;;16.95;78.64;102058.88;5070471;28;45436;-76
2023/04/17 07:49:05;;;;;;;;;47.25;37.75;;;;;16.95;78.52;102057.03;5063394;28;45307;-78
2023/04/17 07:51:30;;;;;;;;;50.75;41.50;;;;;16.96;79.02;102047.97;5063189;28;45421;-77
2023/04/17 07:53:55;;;;;;;;;45.75;36.75;;;;;17.09;78.80;102054.56;5063570;28;46141;-77
2023/04/17 07:56:21;;;;;;;;;47.50;38.50;;;;;17.07;78.30;102051.22;5064295;28;50142;-80
2023/04/17 07:58:50;;;;;;;;;43.00;36.75;;;;;17.13;78.37;102064.78;5065441;28;45317;-80
2023/04/17 08:01:16;;;;;;;;;46.67;37.33;;;;;17.02;77.89;102044.53;5066149;28;45289;-81
2023/04/17 08:03:43;;;;;;;;;50.75;42.50;;;;;17.08;78.02;102053.72;5049694;28;45901;-79
2023/04/17 08:06:09;;;;;;;;;51.50;41.75;;;;;17.16;78.05;102058.19;5068003;28;46028;-80
2023/04/17 08:08:35;;;;;;;;;51.75;43.25;;;;;17.08;78.45;102055.56;5051577;28;45332;-81
2023/04/17 08:11:00;;;;;;;;;51.75;41.00;;;;;17.15;78.79;102049.28;5068547;28;45355;-79
2023/04/17 08:13:25;;;;;;;;;50.00;40.50;;;;;17.28;77.30;102055.84;5065034;28;45494;-80
2023/04/17 08:15:53;;;;;;;;;51.75;40.75;;;;;17.29;77.94;102068.25;5045768;28;47530;-80
2023/04/17 08:18:18;;;;;;;;;46.00;39.25;;;;;17.31;78.73;102049.25;5044640;28;45304;-81
2023/04/17 08:20:44;;;;;;;;;51.50;43.00;;;;;17.47;77.82;102054.44;5067003;28;45284;-80
2023/04/17 08:23:09;;;;;;;;;51.50;41.50;;;;;17.54;76.74;102063.41;5063268;28;46709;-81
2023/04/17 08:25:34;;;;;;;;;51.00;40.25;;;;;17.54;76.51;102059.91;5047744;28;47122;-81
2023/04/17 08:28:00;;;;;;;;;49.00;41.00;;;;;17.57;77.15;102056.00;5067648;28;45167;-78
2023/04/17 08:30:25;;;;;;;;;51.00;40.75;;;;;17.64;76.50;102073.88;5060587;28;44793;-80
2023/04/17 08:32:51;;;;;;;;;50.25;41.25;;;;;17.58;76.84;102054.97;5083066;28;46916;-79
2023/04/17 08:35:17;;;;;;;;;49.75;41.00;;;;;17.64;76.52;102065.81;5069495;28;47079;-80
2023/04/17 08:37:45;;;;;;;;;50.25;42.75;;;;;17.78;76.86;102063.25;5074836;28;45358;-79
2023/04/17 08:40:12;;;;;;;;;50.50;41.25;;;;;17.88;77.00;102065.63;5091732;28;45274;-80
2023/04/17 08:42:40;;;;;;;;;49.75;40.25;;;;;17.87;76.57;102059.41;5074138;28;46062;-79
2023/04/17 08:45:10;;;;;;;;;51.00;41.50;;;;;17.95;75.61;102054.94;5092090;28;45951;-79
2023/04/17 08:47:40;;;;;;;;;52.00;41.75;;;;;18.06;75.48;102070.56;5091991;28;45413;-81
2023/04/17 08:50:14;;;;;;;;;50.75;42.75;;;;;18.16;75.38;102068.41;5089230;28;45299;-79
2023/04/17 08:52:44;;;;;;;;;51.75;43.00;;;;;18.01;74.78;102044.25;5090794;28;45295;-78
2023/04/17 08:55:20;;;;;;;;;45.00;36.75;;;;;18.12;74.76;102059.06;5087498;28;45316;-80
2023/04/17 08:57:57;;;;;;;;;53.25;41.00;;;;;18.23;74.70;102064.97;5056433;28;45913;-78
2023/04/17 09:00:31;;;;;;;;;56.25;46.00;;;;;18.27;74.21;102064.38;5065917;28;45292;-79
2023/04/17 09:02:58;;;;;;;;;53.50;43.00;;;;;18.25;74.33;102061.03;5065595;28;45410;-78
2023/04/17 09:05:29;;;;;;;;;48.25;40.75;;;;;18.20;74.33;102058.13;5066482;28;45581;-79
2023/04/17 09:08:14;;;;;;;;;50.25;42.00;;;;;18.27;74.43;102067.06;5062170;28;45377;-79
2023/04/17 09:10:47;;;;;;;;;52.75;42.75;;;;;18.26;75.36;102060.00;5067817;28;45355;-77
2023/04/17 09:13:15;;;;;;;;;53.25;44.25;;;;;18.34;74.76;102063.59;5049469;28;47245;-79
2023/04/17 09:15:42;;;;;;;;;49.25;41.25;;;;;18.32;74.51;102047.66;5070112;28;45408;-78
2023/04/17 09:18:29;;;;;;;;;48.50;40.00;;;;;18.53;74.64;102068.31;5049370;28;45308;-76
2023/04/17 09:20:56;;;;;;;;;52.00;42.25;;;;;18.66;75.11;102064.06;5069270;28;45281;-76
2023/04/17 09:23:22;;;;;;;;;53.00;43.00;;;;;18.81;73.10;102061.25;5049702;28;46362;-78
2023/04/17 09:26:05;;;;;;;;;48.00;40.00;;;;;18.90;73.25;102054.69;5049177;28;46194;-79
2023/04/17 09:28:34;;;;;;;;;50.75;42.00;;;;;19.01;72.79;102053.28;5051519;28;45208;-76
2023/04/17 09:31:02;;;;;;;;;49.75;40.50;;;;;19.13;72.01;102064.34;5088280;27;45377;-77
2023/04/17 09:33:28;;;;;;;;;49.75;41.00;;;;;19.18;71.91;102053.81;5087470;28;46115;-76
2023/04/17 09:35:53;;;;;;;;;49.75;41.50;;;;;19.27;71.50;102061.72;5090471;28;46274;-77
2023/04/17 09:38:35;;;;;;;;;50.75;41.25;;;;;19.30;71.02;102056.78;5091308;27;48735;-76
2023/04/17 09:41:00;;;;;;;;;49.50;41.50;;;;;19.40;70.34;102056.38;5086596;28;45394;-75
2023/04/17 09:43:41;;;;;;;;;52.75;42.75;;;;;19.39;71.65;102046.66;5087411;28;55147;-76
2023/04/17 09:46:06;;;;;;;;;49.33;41.33;;;;;19.48;70.98;102060.78;5083644;27;45389;-76
2023/04/17 09:48:31;;;;;;;;;49.75;41.75;;;;;19.46;70.37;102054.78;5081506;28;45276;-76
2023/04/17 09:50:57;;;;;;;;;48.00;38.75;;;;;19.54;70.05;102046.50;5081740;27;46921;-75
2023/04/17 09:53:25;;;;;;;;;50.00;41.75;;;;;19.59;70.10;102051.28;5081073;27;45471;-75
2023/04/17 09:55:52;;;;;;;;;49.25;41.25;;;;;19.63;70.49;102057.09;5080596;28;47060;-75
2023/04/17 09:58:18;;;;;;;;;48.67;40.33;;;;;19.65;70.64;102049.63;5082401;27;45234;-74
2023/04/17 10:00:44;;;;;;;;;51.00;40.67;;;;;19.62;69.61;102042.78;5081451;27;45283;-76
2023/04/17 10:03:14;;;;;;;;;50.50;42.50;;;;;19.60;69.12;102044.03;5086778;27;45165;-74
2023/04/17 10:05:39;;;;;;;;;52.75;42.75;;;;;19.54;69.94;102046.50;5089709;28;45378;-75
2023/04/17 10:08:05;;;;;;;;;50.00;41.00;;;;;19.56;70.04;102043.59;5090365;27;45856;-75
2023/04/17 10:10:33;;;;;;;;;51.67;42.33;;;;;19.62;69.27;102053.56;5083636;28;45342;-74
2023/04/17 10:13:04;;;;;;;;;45.33;37.33;;;;;19.52;69.64;102048.53;5082610;28;46196;-75
2023/04/17 10:15:31;;;;;;;;;48.00;39.33;;;;;19.51;69.96;102046.88;5088602;27;47039;-75
2023/04/17 10:18:23;;;;;;;;;53.00;43.67;;;;;19.49;70.39;102048.97;5082968;27;45230;-74
2023/04/17 10:20:51;;;;;;;;;49.00;42.00;;;;;19.46;70.18;102040.44;5076049;28;45577;-74
2023/04/17 10:23:31;;;;;;;;;49.67;40.33;;;;;19.46;69.99;102052.06;5082330;28;45286;-75
2023/04/17 10:26:24;;;;;;;;;51.00;41.50;;;;;19.35;70.79;102041.84;5082590;27;46326;-75
2023/04/17 10:28:51;;;;;;;;;50.00;41.25;;;;;19.36;71.11;102046.22;5083285;28;45270;-74
2023/04/17 10:31:17;;;;;;;;;57.00;44.25;;;;;19.39;70.82;102046.66;5089084;28;44763;-76
2023/04/17 10:33:50;;;;;;;;;49.00;41.25;;;;;19.37;71.60;102042.50;5091210;28;45373;-77
2023/04/17 10:36:48;;;;;;;;;48.75;41.00;;;;;19.49;71.23;102040.88;5067325;28;47113;-75
2023/04/17 10:39:15;;;;;;;;;52.50;43.50;;;;;19.50;70.70;102039.00;5041298;28;45441;-75
2023/04/17 10:42:03;;;;;;;;;51.75;42.50;;;;;19.50;71.48;102034.44;5085910;28;45354;-75
2023/04/17 10:44:38;;;;;;;;;54.50;42.00;;;;;19.49;71.31;102035.50;5083972;28;46882;-75
2023/04/17 10:47:08;;;;;;;;;52.00;41.50;;;;;19.51;71.05;102027.19;5064552;28;47411;-75
2023/04/17 10:49:52;;;;;;;;;48.50;40.25;;;;;19.55;70.95;102028.47;5084954;28;44728;-76
2023/04/17 10:52:40;;;;;;;;;49.00;40.33;;;;;19.59;70.94;102026.16;5083352;28;45265;-74
2023/04/17 10:55:25;;;;;;;;;50.50;42.75;;;;;19.85;69.79;102021.88;5080305;28;45368;-74
2023/04/17 10:57:58;;;;;;;;;51.50;40.75;;;;;19.70;69.03;102030.97;5080260;28;45366;-74
2023/04/17 11:00:31;;;;;;;;;49.25;41.25;;;;;19.46;69.90;102013.50;5061644;28;45334;-75
2023/04/17 11:02:59;;;;;;;;;49.50;39.75;;;;;19.50;69.83;102025.53;5079959;28;45331;-74
2023/04/17 11:05:24;;;;;;;;;51.75;42.25;;;;;19.44;69.73;102021.78;5061513;28;46273;-75
2023/04/17 11:07:50;;;;;;;;;48.50;40.75;;;;;19.41;70.07;102020.34;5079811;28;45315;-75
2023/04/17 11:10:20;;;;;;;;;47.75;40.25;;;;;19.48;70.30;102031.13;5079657;28;45322;-74